sensor_id;sensor_type;location;lat;lon;timestamp;temperature;humidity
3198;DHT22;1611;49.394;11.136;2023-05-07T00:02:23;12.70;64.30
3198;DHT22;1611;49.394;11.136;2023-05-07T00:04:51;12.70;64.50
3198;DHT22;1611;49.394;11.136;2023-05-07T00:07:18;12.70;64.40
3198;DHT22;1611;49.394;11.136;2023-05-07T00:09:44;12.70;65.30
3198;DHT22;1611;49.394;11.136;2023-05-07T00:12:11;12.70;65.50
3198;DHT22;1611;49.394;11.136;2023-05-07T00:14:38;12.70;65.50
3198;DHT22;1611;49.394;11.136;2023-05-07T00:17:05;12.80;65.10
3198;DHT22;1611;49.394;11.136;2023-05-07T00:19:31;12.80;64.60
3198;DHT22;1611;49.394;11.136;2023-05-07T00:21:59;12.80;64.50
3198;DHT22;1611;49.394;11.136;2023-05-07T00:24:26;12.80;64.60
3198;DHT22;1611;49.394;11.136;2023-05-07T00:26:53;12.70;64.90
3198;DHT22;1611;49.394;11.136;2023-05-07T00:29:20;12.80;64.50
3198;DHT22;1611;49.394;11.136;2023-05-07T00:31:46;12.90;64.50
3198;DHT22;1611;49.394;11.136;2023-05-07T00:34:15;13.00;64.20
3198;DHT22;1611;49.394;11.136;2023-05-07T00:36:42;13.10;64.10
3198;DHT22;1611;49.394;11.136;2023-05-07T00:39:10;13.10;64.30
3198;DHT22;1611;49.394;11.136;2023-05-07T00:41:36;13.20;64.30
3198;DHT22;1611;49.394;11.136;2023-05-07T00:44:03;13.30;64.40
3198;DHT22;1611;49.394;11.136;2023-05-07T00:46:30;13.30;64.20
3198;DHT22;1611;49.394;11.136;2023-05-07T00:48:58;13.40;64.00
3198;DHT22;1611;49.394;11.136;2023-05-07T00:51:26;13.40;63.60
3198;DHT22;1611;49.394;11.136;2023-05-07T00:53:53;13.40;63.10
3198;DHT22;1611;49.394;11.136;2023-05-07T00:56:22;13.40;62.90
3198;DHT22;1611;49.394;11.136;2023-05-07T00:58:49;13.40;62.70
3198;DHT22;1611;49.394;11.136;2023-05-07T01:01:16;13.40;63.10
3198;DHT22;1611;49.394;11.136;2023-05-07T01:03:43;13.30;63.20
3198;DHT22;1611;49.394;11.136;2023-05-07T01:06:10;13.30;63.30
3198;DHT22;1611;49.394;11.136;2023-05-07T01:08:39;13.30;63.50
3198;DHT22;1611;49.394;11.136;2023-05-07T01:11:06;13.30;63.40
3198;DHT22;1611;49.394;11.136;2023-05-07T01:13:35;13.30;63.40
3198;DHT22;1611;49.394;11.136;2023-05-07T01:16:03;13.30;63.60
3198;DHT22;1611;49.394;11.136;2023-05-07T01:18:30;13.30;63.60
3198;DHT22;1611;49.394;11.136;2023-05-07T01:20:58;13.20;63.80
3198;DHT22;1611;49.394;11.136;2023-05-07T01:23:27;13.30;63.80
3198;DHT22;1611;49.394;11.136;2023-05-07T01:25:54;13.20;63.90
3198;DHT22;1611;49.394;11.136;2023-05-07T01:28:21;13.20;63.60
3198;DHT22;1611;49.394;11.136;2023-05-07T01:30:51;13.20;64.00
3198;DHT22;1611;49.394;11.136;2023-05-07T01:33:20;13.20;64.30
3198;DHT22;1611;49.394;11.136;2023-05-07T01:35:50;13.20;64.30
3198;DHT22;1611;49.394;11.136;2023-05-07T01:38:18;13.30;63.90
3198;DHT22;1611;49.394;11.136;2023-05-07T01:40:46;13.20;63.70
3198;DHT22;1611;49.394;11.136;2023-05-07T01:43:13;13.30;63.80
3198;DHT22;1611;49.394;11.136;2023-05-07T01:45:41;13.30;63.90
3198;DHT22;1611;49.394;11.136;2023-05-07T01:48:11;13.30;63.80
3198;DHT22;1611;49.394;11.136;2023-05-07T01:50:39;13.30;64.20
3198;DHT22;1611;49.394;11.136;2023-05-07T01:53:06;13.30;64.30
3198;DHT22;1611;49.394;11.136;2023-05-07T01:55:33;13.30;64.50
3198;DHT22;1611;49.394;11.136;2023-05-07T01:58:03;13.30;64.70
3198;DHT22;1611;49.394;11.136;2023-05-07T02:00:30;13.20;65.10
3198;DHT22;1611;49.394;11.136;2023-05-07T02:02:57;13.20;65.50
3198;DHT22;1611;49.394;11.136;2023-05-07T02:05:24;13.20;65.80
3198;DHT22;1611;49.394;11.136;2023-05-07T02:07:51;13.20;66.20
3198;DHT22;1611;49.394;11.136;2023-05-07T02:10:17;13.30;65.30
3198;DHT22;1611;49.394;11.136;2023-05-07T02:12:44;13.30;65.40
3198;DHT22;1611;49.394;11.136;2023-05-07T02:15:12;13.30;64.90
3198;DHT22;1611;49.394;11.136;2023-05-07T02:17:57;13.40;63.80
3198;DHT22;1611;49.394;11.136;2023-05-07T02:20:25;13.30;63.40
3198;DHT22;1611;49.394;11.136;2023-05-07T02:22:52;13.30;63.40
3198;DHT22;1611;49.394;11.136;2023-05-07T02:25:18;13.30;63.50
3198;DHT22;1611;49.394;11.136;2023-05-07T02:27:45;13.30;63.50
3198;DHT22;1611;49.394;11.136;2023-05-07T02:30:14;13.30;63.60
3198;DHT22;1611;49.394;11.136;2023-05-07T02:32:40;13.20;63.30
3198;DHT22;1611;49.394;11.136;2023-05-07T02:35:07;13.20;63.60
3198;DHT22;1611;49.394;11.136;2023-05-07T02:37:34;13.10;64.10
3198;DHT22;1611;49.394;11.136;2023-05-07T02:40:01;13.10;64.50
3198;DHT22;1611;49.394;11.136;2023-05-07T02:42:29;13.00;64.20
3198;DHT22;1611;49.394;11.136;2023-05-07T02:44:56;13.00;63.80
3198;DHT22;1611;49.394;11.136;2023-05-07T02:47:24;12.90;63.90
3198;DHT22;1611;49.394;11.136;2023-05-07T02:49:52;12.90;63.80
3198;DHT22;1611;49.394;11.136;2023-05-07T02:52:19;12.80;64.30
3198;DHT22;1611;49.394;11.136;2023-05-07T02:54:45;12.80;65.20
3198;DHT22;1611;49.394;11.136;2023-05-07T02:57:12;12.70;65.40
3198;DHT22;1611;49.394;11.136;2023-05-07T02:59:39;12.70;65.00
3198;DHT22;1611;49.394;11.136;2023-05-07T03:02:06;12.70;64.80
3198;DHT22;1611;49.394;11.136;2023-05-07T03:04:34;12.70;65.50
3198;DHT22;1611;49.394;11.136;2023-05-07T03:07:01;12.60;65.30
3198;DHT22;1611;49.394;11.136;2023-05-07T03:09:27;12.60;65.10
3198;DHT22;1611;49.394;11.136;2023-05-07T03:11:54;12.50;65.50
3198;DHT22;1611;49.394;11.136;2023-05-07T03:14:21;12.50;65.70
3198;DHT22;1611;49.394;11.136;2023-05-07T03:16:48;12.40;65.70
3198;DHT22;1611;49.394;11.136;2023-05-07T03:19:15;12.40;65.80
3198;DHT22;1611;49.394;11.136;2023-05-07T03:21:43;12.30;66.20
3198;DHT22;1611;49.394;11.136;2023-05-07T03:24:10;12.30;66.60
3198;DHT22;1611;49.394;11.136;2023-05-07T03:26:36;12.20;66.80
3198;DHT22;1611;49.394;11.136;2023-05-07T03:29:03;12.20;67.00
3198;DHT22;1611;49.394;11.136;2023-05-07T03:31:30;12.20;67.10
3198;DHT22;1611;49.394;11.136;2023-05-07T03:33:57;12.20;67.00
3198;DHT22;1611;49.394;11.136;2023-05-07T03:36:24;12.20;67.30
3198;DHT22;1611;49.394;11.136;2023-05-07T03:38:53;12.10;67.50
3198;DHT22;1611;49.394;11.136;2023-05-07T03:41:20;12.10;67.90
3198;DHT22;1611;49.394;11.136;2023-05-07T03:43:46;12.10;67.90
3198;DHT22;1611;49.394;11.136;2023-05-07T03:46:13;12.20;67.80
3198;DHT22;1611;49.394;11.136;2023-05-07T03:48:40;12.20;67.20
3198;DHT22;1611;49.394;11.136;2023-05-07T03:51:07;12.20;67.10
3198;DHT22;1611;49.394;11.136;2023-05-07T03:53:33;12.20;67.00
3198;DHT22;1611;49.394;11.136;2023-05-07T03:56:02;12.20;67.10
3198;DHT22;1611;49.394;11.136;2023-05-07T03:58:28;12.20;67.20
3198;DHT22;1611;49.394;11.136;2023-05-07T04:00:55;12.10;67.60
3198;DHT22;1611;49.394;11.136;2023-05-07T04:03:22;12.20;67.90
3198;DHT22;1611;49.394;11.136;2023-05-07T04:05:49;12.10;67.80
3198;DHT22;1611;49.394;11.136;2023-05-07T04:08:15;12.10;67.50
3198;DHT22;1611;49.394;11.136;2023-05-07T04:10:42;12.10;67.60
3198;DHT22;1611;49.394;11.136;2023-05-07T04:13:10;12.10;67.50
3198;DHT22;1611;49.394;11.136;2023-05-07T04:15:37;12.10;67.70
3198;DHT22;1611;49.394;11.136;2023-05-07T04:18:04;12.10;67.70
3198;DHT22;1611;49.394;11.136;2023-05-07T04:20:30;12.00;68.00
3198;DHT22;1611;49.394;11.136;2023-05-07T04:22:57;12.00;68.60
3198;DHT22;1611;49.394;11.136;2023-05-07T04:25:24;12.10;68.80
3198;DHT22;1611;49.394;11.136;2023-05-07T04:27:52;12.20;68.50
3198;DHT22;1611;49.394;11.136;2023-05-07T04:30:20;12.30;68.30
3198;DHT22;1611;49.394;11.136;2023-05-07T04:32:47;12.40;67.80
3198;DHT22;1611;49.394;11.136;2023-05-07T04:35:14;12.40;67.50
3198;DHT22;1611;49.394;11.136;2023-05-07T04:37:41;12.40;67.60
3198;DHT22;1611;49.394;11.136;2023-05-07T04:40:08;12.50;67.50
3198;DHT22;1611;49.394;11.136;2023-05-07T04:42:35;12.50;67.10
3198;DHT22;1611;49.394;11.136;2023-05-07T04:45:04;12.50;67.40
3198;DHT22;1611;49.394;11.136;2023-05-07T04:47:32;12.50;67.30
3198;DHT22;1611;49.394;11.136;2023-05-07T04:49:59;12.60;67.80
3198;DHT22;1611;49.394;11.136;2023-05-07T04:52:26;12.60;66.70
3198;DHT22;1611;49.394;11.136;2023-05-07T04:54:52;12.70;66.50
3198;DHT22;1611;49.394;11.136;2023-05-07T04:57:19;12.80;66.10
3198;DHT22;1611;49.394;11.136;2023-05-07T04:59:46;12.90;66.20
3198;DHT22;1611;49.394;11.136;2023-05-07T05:02:13;12.90;65.70
3198;DHT22;1611;49.394;11.136;2023-05-07T05:04:41;13.00;65.30
3198;DHT22;1611;49.394;11.136;2023-05-07T05:07:07;13.10;65.30
3198;DHT22;1611;49.394;11.136;2023-05-07T05:09:34;13.10;65.50
3198;DHT22;1611;49.394;11.136;2023-05-07T05:12:01;13.20;65.00
3198;DHT22;1611;49.394;11.136;2023-05-07T05:14:28;13.20;64.60
3198;DHT22;1611;49.394;11.136;2023-05-07T05:16:54;13.30;64.70
3198;DHT22;1611;49.394;11.136;2023-05-07T05:19:21;13.40;64.60
3198;DHT22;1611;49.394;11.136;2023-05-07T05:21:49;13.60;64.50
3198;DHT22;1611;49.394;11.136;2023-05-07T05:24:16;13.60;64.00
3198;DHT22;1611;49.394;11.136;2023-05-07T05:26:43;13.70;64.00
3198;DHT22;1611;49.394;11.136;2023-05-07T05:29:10;13.90;63.50
3198;DHT22;1611;49.394;11.136;2023-05-07T05:31:36;14.00;62.50
3198;DHT22;1611;49.394;11.136;2023-05-07T05:34:03;14.10;61.60
3198;DHT22;1611;49.394;11.136;2023-05-07T05:36:30;14.30;60.90
3198;DHT22;1611;49.394;11.136;2023-05-07T05:38:58;14.40;60.20
3198;DHT22;1611;49.394;11.136;2023-05-07T05:41:25;14.50;58.70
3198;DHT22;1611;49.394;11.136;2023-05-07T05:43:51;14.50;58.20
3198;DHT22;1611;49.394;11.136;2023-05-07T05:46:19;14.70;58.10
3198;DHT22;1611;49.394;11.136;2023-05-07T05:48:45;14.70;56.90
3198;DHT22;1611;49.394;11.136;2023-05-07T05:51:12;14.70;56.90
3198;DHT22;1611;49.394;11.136;2023-05-07T05:53:39;14.80;56.70
3198;DHT22;1611;49.394;11.136;2023-05-07T05:56:07;14.90;56.10
3198;DHT22;1611;49.394;11.136;2023-05-07T05:58:34;15.00;56.00
3198;DHT22;1611;49.394;11.136;2023-05-07T06:01:01;15.00;55.90
3198;DHT22;1611;49.394;11.136;2023-05-07T06:03:29;15.10;56.00
3198;DHT22;1611;49.394;11.136;2023-05-07T06:05:55;15.20;56.00
3198;DHT22;1611;49.394;11.136;2023-05-07T06:08:22;15.20;56.50
3198;DHT22;1611;49.394;11.136;2023-05-07T06:10:49;15.20;55.60
3198;DHT22;1611;49.394;11.136;2023-05-07T06:13:17;15.40;54.80
3198;DHT22;1611;49.394;11.136;2023-05-07T06:15:44;15.40;53.90
3198;DHT22;1611;49.394;11.136;2023-05-07T06:18:11;15.50;53.50
3198;DHT22;1611;49.394;11.136;2023-05-07T06:20:37;15.50;53.10
3198;DHT22;1611;49.394;11.136;2023-05-07T06:23:04;15.60;53.30
3198;DHT22;1611;49.394;11.136;2023-05-07T06:25:31;15.60;53.30
3198;DHT22;1611;49.394;11.136;2023-05-07T06:27:58;15.70;53.10
3198;DHT22;1611;49.394;11.136;2023-05-07T06:30:26;15.70;53.40
3198;DHT22;1611;49.394;11.136;2023-05-07T06:32:53;15.80;53.40
3198;DHT22;1611;49.394;11.136;2023-05-07T06:35:20;15.90;53.10
3198;DHT22;1611;49.394;11.136;2023-05-07T06:37:46;15.90;53.70
3198;DHT22;1611;49.394;11.136;2023-05-07T06:40:13;15.90;52.60
3198;DHT22;1611;49.394;11.136;2023-05-07T06:42:41;16.00;52.90
3198;DHT22;1611;49.394;11.136;2023-05-07T06:45:08;16.10;52.90
3198;DHT22;1611;49.394;11.136;2023-05-07T06:47:37;16.20;52.70
3198;DHT22;1611;49.394;11.136;2023-05-07T06:50:04;16.30;52.20
3198;DHT22;1611;49.394;11.136;2023-05-07T06:52:31;16.30;52.10
3198;DHT22;1611;49.394;11.136;2023-05-07T06:54:57;16.40;52.10
3198;DHT22;1611;49.394;11.136;2023-05-07T06:57:24;16.50;51.50
3198;DHT22;1611;49.394;11.136;2023-05-07T06:59:51;16.80;50.60
3198;DHT22;1611;49.394;11.136;2023-05-07T07:02:18;16.90;50.50
3198;DHT22;1611;49.394;11.136;2023-05-07T07:04:46;17.20;50.20
3198;DHT22;1611;49.394;11.136;2023-05-07T07:07:12;17.40;48.70
3198;DHT22;1611;49.394;11.136;2023-05-07T07:09:39;17.50;47.20
3198;DHT22;1611;49.394;11.136;2023-05-07T07:12:06;17.60;47.10
3198;DHT22;1611;49.394;11.136;2023-05-07T07:14:33;17.70;46.60
3198;DHT22;1611;49.394;11.136;2023-05-07T07:16:59;17.90;46.30
3198;DHT22;1611;49.394;11.136;2023-05-07T07:19:26;18.00;45.10
3198;DHT22;1611;49.394;11.136;2023-05-07T07:21:54;18.10;44.90
3198;DHT22;1611;49.394;11.136;2023-05-07T07:24:21;18.10;45.00
3198;DHT22;1611;49.394;11.136;2023-05-07T07:26:48;18.30;44.70
3198;DHT22;1611;49.394;11.136;2023-05-07T07:29:15;18.20;44.10
3198;DHT22;1611;49.394;11.136;2023-05-07T07:31:41;18.20;42.50
3198;DHT22;1611;49.394;11.136;2023-05-07T07:34:08;18.30;43.70
3198;DHT22;1611;49.394;11.136;2023-05-07T07:36:35;18.40;42.60
3198;DHT22;1611;49.394;11.136;2023-05-07T07:39:03;18.50;40.30
3198;DHT22;1611;49.394;11.136;2023-05-07T07:41:30;18.60;41.20
3198;DHT22;1611;49.394;11.136;2023-05-07T07:43:57;18.90;41.00
3198;DHT22;1611;49.394;11.136;2023-05-07T07:46:24;19.10;40.30
3198;DHT22;1611;49.394;11.136;2023-05-07T07:48:51;19.10;40.00
3198;DHT22;1611;49.394;11.136;2023-05-07T07:51:19;19.20;39.30
3198;DHT22;1611;49.394;11.136;2023-05-07T07:53:46;19.30;38.90
3198;DHT22;1611;49.394;11.136;2023-05-07T07:56:14;19.20;39.50
3198;DHT22;1611;49.394;11.136;2023-05-07T07:58:40;19.30;39.30
3198;DHT22;1611;49.394;11.136;2023-05-07T08:01:07;19.30;39.40
3198;DHT22;1611;49.394;11.136;2023-05-07T08:03:34;19.40;39.20
3198;DHT22;1611;49.394;11.136;2023-05-07T08:06:01;19.50;38.50
3198;DHT22;1611;49.394;11.136;2023-05-07T08:08:27;19.50;39.20
3198;DHT22;1611;49.394;11.136;2023-05-07T08:10:54;19.50;37.50
3198;DHT22;1611;49.394;11.136;2023-05-07T08:13:22;19.70;38.70
3198;DHT22;1611;49.394;11.136;2023-05-07T08:15:49;19.70;37.60
3198;DHT22;1611;49.394;11.136;2023-05-07T08:18:16;19.80;38.30
3198;DHT22;1611;49.394;11.136;2023-05-07T08:20:42;20.00;37.50
3198;DHT22;1611;49.394;11.136;2023-05-07T08:23:09;20.00;38.70
3198;DHT22;1611;49.394;11.136;2023-05-07T08:25:36;20.30;37.90
3198;DHT22;1611;49.394;11.136;2023-05-07T08:28:03;20.50;36.50
3198;DHT22;1611;49.394;11.136;2023-05-07T08:30:31;20.50;35.70
3198;DHT22;1611;49.394;11.136;2023-05-07T08:32:58;20.50;35.80
3198;DHT22;1611;49.394;11.136;2023-05-07T08:35:25;20.50;35.60
3198;DHT22;1611;49.394;11.136;2023-05-07T08:37:52;20.50;34.50
3198;DHT22;1611;49.394;11.136;2023-05-07T08:40:19;20.50;35.70
3198;DHT22;1611;49.394;11.136;2023-05-07T08:42:49;20.50;34.00
3198;DHT22;1611;49.394;11.136;2023-05-07T08:45:19;20.40;35.20
3198;DHT22;1611;49.394;11.136;2023-05-07T08:47:51;20.50;35.40
3198;DHT22;1611;49.394;11.136;2023-05-07T08:50:19;20.70;35.10
3198;DHT22;1611;49.394;11.136;2023-05-07T08:52:47;20.90;36.70
3198;DHT22;1611;49.394;11.136;2023-05-07T08:55:14;21.10;35.90
3198;DHT22;1611;49.394;11.136;2023-05-07T08:57:41;21.00;34.90
3198;DHT22;1611;49.394;11.136;2023-05-07T09:00:09;21.20;34.50
3198;DHT22;1611;49.394;11.136;2023-05-07T09:02:36;21.10;33.40
3198;DHT22;1611;49.394;11.136;2023-05-07T09:05:06;21.30;34.40
3198;DHT22;1611;49.394;11.136;2023-05-07T09:07:33;21.40;33.60
3198;DHT22;1611;49.394;11.136;2023-05-07T09:10:01;21.40;33.30
3198;DHT22;1611;49.394;11.136;2023-05-07T09:12:28;21.40;32.20
3198;DHT22;1611;49.394;11.136;2023-05-07T09:14:55;21.60;31.50
3198;DHT22;1611;49.394;11.136;2023-05-07T09:17:22;21.80;33.90
3198;DHT22;1611;49.394;11.136;2023-05-07T09:19:48;21.90;33.00
3198;DHT22;1611;49.394;11.136;2023-05-07T09:22:17;21.90;31.40
3198;DHT22;1611;49.394;11.136;2023-05-07T09:24:47;21.90;34.10
3198;DHT22;1611;49.394;11.136;2023-05-07T09:27:14;21.90;30.40
3198;DHT22;1611;49.394;11.136;2023-05-07T09:29:41;21.80;33.70
3198;DHT22;1611;49.394;11.136;2023-05-07T09:32:08;21.80;31.70
3198;DHT22;1611;49.394;11.136;2023-05-07T09:34:35;21.90;33.00
3198;DHT22;1611;49.394;11.136;2023-05-07T09:37:03;21.80;32.00
3198;DHT22;1611;49.394;11.136;2023-05-07T09:39:40;21.70;31.20
3198;DHT22;1611;49.394;11.136;2023-05-07T09:42:07;21.90;30.80
3198;DHT22;1611;49.394;11.136;2023-05-07T09:44:34;21.90;30.20
3198;DHT22;1611;49.394;11.136;2023-05-07T09:47:04;21.90;30.80
3198;DHT22;1611;49.394;11.136;2023-05-07T09:49:34;21.60;31.10
3198;DHT22;1611;49.394;11.136;2023-05-07T09:52:03;21.60;30.00
3198;DHT22;1611;49.394;11.136;2023-05-07T09:54:31;21.60;30.80
3198;DHT22;1611;49.394;11.136;2023-05-07T09:57:01;21.70;31.70
3198;DHT22;1611;49.394;11.136;2023-05-07T09:59:30;22.00;31.10
3198;DHT22;1611;49.394;11.136;2023-05-07T10:01:58;22.10;30.30
3198;DHT22;1611;49.394;11.136;2023-05-07T10:04:25;22.10;30.10
3198;DHT22;1611;49.394;11.136;2023-05-07T10:06:53;22.40;29.20
3198;DHT22;1611;49.394;11.136;2023-05-07T10:09:21;22.70;30.70
3198;DHT22;1611;49.394;11.136;2023-05-07T10:11:49;23.00;29.90
3198;DHT22;1611;49.394;11.136;2023-05-07T10:14:19;23.20;28.20
3198;DHT22;1611;49.394;11.136;2023-05-07T10:16:47;23.40;27.80
3198;DHT22;1611;49.394;11.136;2023-05-07T10:19:14;23.60;26.80
3198;DHT22;1611;49.394;11.136;2023-05-07T10:21:44;23.90;27.60
3198;DHT22;1611;49.394;11.136;2023-05-07T10:24:19;24.10;25.40
3198;DHT22;1611;49.394;11.136;2023-05-07T10:26:50;24.30;26.00
3198;DHT22;1611;49.394;11.136;2023-05-07T10:29:29;24.50;24.70
3198;DHT22;1611;49.394;11.136;2023-05-07T10:31:59;24.60;23.90
3198;DHT22;1611;49.394;11.136;2023-05-07T10:34:34;24.50;23.00
3198;DHT22;1611;49.394;11.136;2023-05-07T10:37:02;24.50;23.40
3198;DHT22;1611;49.394;11.136;2023-05-07T10:39:29;24.50;25.30
3198;DHT22;1611;49.394;11.136;2023-05-07T10:41:57;24.60;24.30
3198;DHT22;1611;49.394;11.136;2023-05-07T10:44:34;24.90;24.70
3198;DHT22;1611;49.394;11.136;2023-05-07T10:47:09;24.70;23.80
3198;DHT22;1611;49.394;11.136;2023-05-07T10:49:38;25.00;23.00
3198;DHT22;1611;49.394;11.136;2023-05-07T10:52:25;25.10;24.40
3198;DHT22;1611;49.394;11.136;2023-05-07T10:55:19;25.40;20.00
3198;DHT22;1611;49.394;11.136;2023-05-07T10:57:47;25.50;19.70
3198;DHT22;1611;49.394;11.136;2023-05-07T11:00:43;25.40;19.40
3198;DHT22;1611;49.394;11.136;2023-05-07T11:03:10;25.50;20.60
3198;DHT22;1611;49.394;11.136;2023-05-07T11:05:38;25.20;20.60
3198;DHT22;1611;49.394;11.136;2023-05-07T11:08:06;25.20;19.70
3198;DHT22;1611;49.394;11.136;2023-05-07T11:10:49;25.40;19.60
3198;DHT22;1611;49.394;11.136;2023-05-07T11:13:17;25.50;19.00
3198;DHT22;1611;49.394;11.136;2023-05-07T11:15:45;25.70;19.00
3198;DHT22;1611;49.394;11.136;2023-05-07T11:18:13;26.00;18.30
3198;DHT22;1611;49.394;11.136;2023-05-07T11:20:57;26.20;18.10
3198;DHT22;1611;49.394;11.136;2023-05-07T11:26:46;25.90;20.00
3198;DHT22;1611;49.394;11.136;2023-05-07T11:29:17;26.40;18.10
3198;DHT22;1611;49.394;11.136;2023-05-07T11:31:48;26.50;18.40
3198;DHT22;1611;49.394;11.136;2023-05-07T11:34:21;26.60;17.80
3198;DHT22;1611;49.394;11.136;2023-05-07T11:36:48;26.50;16.30
3198;DHT22;1611;49.394;11.136;2023-05-07T11:39:27;26.10;18.00
3198;DHT22;1611;49.394;11.136;2023-05-07T11:41:55;25.80;18.30
3198;DHT22;1611;49.394;11.136;2023-05-07T11:44:22;25.60;18.50
3198;DHT22;1611;49.394;11.136;2023-05-07T11:46:49;25.50;19.40
3198;DHT22;1611;49.394;11.136;2023-05-07T11:49:17;25.50;19.00
3198;DHT22;1611;49.394;11.136;2023-05-07T11:51:43;25.50;18.90
3198;DHT22;1611;49.394;11.136;2023-05-07T11:54:15;26.20;18.70
3198;DHT22;1611;49.394;11.136;2023-05-07T11:56:42;26.60;16.40
3198;DHT22;1611;49.394;11.136;2023-05-07T11:59:11;27.10;16.90
3198;DHT22;1611;49.394;11.136;2023-05-07T12:01:38;26.90;15.70
3198;DHT22;1611;49.394;11.136;2023-05-07T12:04:05;26.70;16.80
3198;DHT22;1611;49.394;11.136;2023-05-07T12:06:36;26.30;17.40
3198;DHT22;1611;49.394;11.136;2023-05-07T12:09:03;25.90;17.70
3198;DHT22;1611;49.394;11.136;2023-05-07T12:11:30;25.50;18.60
3198;DHT22;1611;49.394;11.136;2023-05-07T12:13:57;25.20;18.00
3198;DHT22;1611;49.394;11.136;2023-05-07T12:16:25;24.90;18.50
3198;DHT22;1611;49.394;11.136;2023-05-07T12:18:52;24.60;19.40
3198;DHT22;1611;49.394;11.136;2023-05-07T12:21:20;24.50;19.50
3198;DHT22;1611;49.394;11.136;2023-05-07T12:23:48;24.40;19.80
3198;DHT22;1611;49.394;11.136;2023-05-07T12:26:14;24.30;20.70
3198;DHT22;1611;49.394;11.136;2023-05-07T12:28:41;24.10;21.90
3198;DHT22;1611;49.394;11.136;2023-05-07T12:31:08;24.00;21.30
3198;DHT22;1611;49.394;11.136;2023-05-07T12:33:37;24.00;21.70
3198;DHT22;1611;49.394;11.136;2023-05-07T12:36:06;23.90;22.30
3198;DHT22;1611;49.394;11.136;2023-05-07T12:38:37;23.80;23.00
3198;DHT22;1611;49.394;11.136;2023-05-07T12:41:06;23.70;23.20
3198;DHT22;1611;49.394;11.136;2023-05-07T12:43:33;23.70;21.90
3198;DHT22;1611;49.394;11.136;2023-05-07T12:46:01;23.60;21.90
3198;DHT22;1611;49.394;11.136;2023-05-07T12:48:29;23.60;22.80
3198;DHT22;1611;49.394;11.136;2023-05-07T12:50:58;23.60;23.30
3198;DHT22;1611;49.394;11.136;2023-05-07T12:53:26;23.80;23.50
3198;DHT22;1611;49.394;11.136;2023-05-07T12:55:54;24.80;21.60
3198;DHT22;1611;49.394;11.136;2023-05-07T12:58:24;26.00;20.00
3198;DHT22;1611;49.394;11.136;2023-05-07T13:00:52;26.50;19.60
3198;DHT22;1611;49.394;11.136;2023-05-07T13:03:23;26.80;17.90
3198;DHT22;1611;49.394;11.136;2023-05-07T13:05:50;26.80;17.70
3198;DHT22;1611;49.394;11.136;2023-05-07T13:08:29;26.70;16.70
3198;DHT22;1611;49.394;11.136;2023-05-07T13:10:57;26.40;17.20
3198;DHT22;1611;49.394;11.136;2023-05-07T13:13:24;26.40;16.70
3198;DHT22;1611;49.394;11.136;2023-05-07T13:15:51;25.90;17.30
3198;DHT22;1611;49.394;11.136;2023-05-07T13:18:18;25.60;17.20
3198;DHT22;1611;49.394;11.136;2023-05-07T13:20:44;25.40;17.70
3198;DHT22;1611;49.394;11.136;2023-05-07T13:23:11;25.50;18.50
3198;DHT22;1611;49.394;11.136;2023-05-07T13:25:39;26.40;18.60
3198;DHT22;1611;49.394;11.136;2023-05-07T13:28:06;27.50;15.80
3198;DHT22;1611;49.394;11.136;2023-05-07T13:30:33;28.30;14.70
3198;DHT22;1611;49.394;11.136;2023-05-07T13:33:00;28.30;14.80
3198;DHT22;1611;49.394;11.136;2023-05-07T13:35:27;28.80;15.00
3198;DHT22;1611;49.394;11.136;2023-05-07T13:37:54;30.70;13.00
3198;DHT22;1611;49.394;11.136;2023-05-07T13:40:21;32.90;9.60
3198;DHT22;1611;49.394;11.136;2023-05-07T13:42:49;34.40;7.30
3198;DHT22;1611;49.394;11.136;2023-05-07T13:45:16;34.20;7.70
3198;DHT22;1611;49.394;11.136;2023-05-07T13:47:43;33.60;8.10
3198;DHT22;1611;49.394;11.136;2023-05-07T13:50:10;32.70;8.30
3198;DHT22;1611;49.394;11.136;2023-05-07T13:52:41;32.50;9.20
3198;DHT22;1611;49.394;11.136;2023-05-07T13:55:08;34.20;7.40
3198;DHT22;1611;49.394;11.136;2023-05-07T13:57:36;34.60;5.70
3198;DHT22;1611;49.394;11.136;2023-05-07T14:00:05;35.20;6.20
3198;DHT22;1611;49.394;11.136;2023-05-07T14:02:32;34.30;6.30
3198;DHT22;1611;49.394;11.136;2023-05-07T14:04:59;32.70;7.40
3198;DHT22;1611;49.394;11.136;2023-05-07T14:07:26;31.60;9.20
3198;DHT22;1611;49.394;11.136;2023-05-07T14:09:53;30.30;11.10
3198;DHT22;1611;49.394;11.136;2023-05-07T14:12:20;29.50;11.70
3198;DHT22;1611;49.394;11.136;2023-05-07T14:14:47;29.00;12.00
3198;DHT22;1611;49.394;11.136;2023-05-07T14:17:17;28.40;14.60
3198;DHT22;1611;49.394;11.136;2023-05-07T14:19:43;27.90;14.70
3198;DHT22;1611;49.394;11.136;2023-05-07T14:22:10;27.20;16.10
3198;DHT22;1611;49.394;11.136;2023-05-07T14:24:37;26.50;17.00
3198;DHT22;1611;49.394;11.136;2023-05-07T14:27:05;25.90;18.00
3198;DHT22;1611;49.394;11.136;2023-05-07T14:29:32;25.50;17.60
3198;DHT22;1611;49.394;11.136;2023-05-07T14:32:00;25.30;18.50
3198;DHT22;1611;49.394;11.136;2023-05-07T14:34:29;24.90;19.50
3198;DHT22;1611;49.394;11.136;2023-05-07T14:36:56;24.60;19.80
3198;DHT22;1611;49.394;11.136;2023-05-07T14:39:22;24.50;20.10
3198;DHT22;1611;49.394;11.136;2023-05-07T14:41:49;24.40;20.90
3198;DHT22;1611;49.394;11.136;2023-05-07T14:44:16;24.40;20.10
3198;DHT22;1611;49.394;11.136;2023-05-07T14:46:43;24.40;20.50
3198;DHT22;1611;49.394;11.136;2023-05-07T14:49:09;24.40;20.00
3198;DHT22;1611;49.394;11.136;2023-05-07T14:51:43;24.40;20.80
3198;DHT22;1611;49.394;11.136;2023-05-07T14:54:11;24.30;20.80
3198;DHT22;1611;49.394;11.136;2023-05-07T14:56:37;24.10;21.40
3198;DHT22;1611;49.394;11.136;2023-05-07T14:59:04;24.10;22.70
3198;DHT22;1611;49.394;11.136;2023-05-07T15:01:31;23.90;22.70
3198;DHT22;1611;49.394;11.136;2023-05-07T15:03:58;23.70;23.50
3198;DHT22;1611;49.394;11.136;2023-05-07T15:06:25;23.70;22.30
3198;DHT22;1611;49.394;11.136;2023-05-07T15:08:53;23.50;22.70
3198;DHT22;1611;49.394;11.136;2023-05-07T15:11:20;23.60;23.20
3198;DHT22;1611;49.394;11.136;2023-05-07T15:13:47;23.70;23.30
3198;DHT22;1611;49.394;11.136;2023-05-07T15:16:14;23.70;22.90
3198;DHT22;1611;49.394;11.136;2023-05-07T15:18:40;23.80;22.50
3198;DHT22;1611;49.394;11.136;2023-05-07T15:21:07;23.90;22.40
3198;DHT22;1611;49.394;11.136;2023-05-07T15:23:34;24.00;23.40
3198;DHT22;1611;49.394;11.136;2023-05-07T15:26:03;24.10;23.70
3198;DHT22;1611;49.394;11.136;2023-05-07T15:28:30;24.00;23.20
3198;DHT22;1611;49.394;11.136;2023-05-07T15:30:57;24.00;22.60
3198;DHT22;1611;49.394;11.136;2023-05-07T15:33:24;24.00;23.10
3198;DHT22;1611;49.394;11.136;2023-05-07T15:35:51;24.00;22.20
3198;DHT22;1611;49.394;11.136;2023-05-07T15:38:17;23.80;22.40
3198;DHT22;1611;49.394;11.136;2023-05-07T15:40:44;23.90;22.90
3198;DHT22;1611;49.394;11.136;2023-05-07T15:43:12;23.80;22.30
3198;DHT22;1611;49.394;11.136;2023-05-07T15:45:40;23.90;22.10
3198;DHT22;1611;49.394;11.136;2023-05-07T15:48:07;23.90;22.80
3198;DHT22;1611;49.394;11.136;2023-05-07T15:50:34;24.00;23.00
3198;DHT22;1611;49.394;11.136;2023-05-07T15:53:01;23.90;23.70
3198;DHT22;1611;49.394;11.136;2023-05-07T15:55:28;23.70;23.70